createdAt,value
2017-11-19T00:00:53.902Z,8.45
2017-11-19T00:03:21.456Z,8.02
2017-11-19T00:05:49.067Z,8.48
2017-11-19T00:08:17.457Z,8.98
2017-11-19T00:10:45.016Z,8.20
2017-11-19T00:13:12.581Z,7.37
2017-11-19T00:15:40.196Z,8.10
2017-11-19T00:18:07.772Z,7.93
2017-11-19T00:20:35.324Z,7.93
2017-11-19T00:23:02.923Z,8.02
2017-11-19T00:25:30.504Z,7.80
2017-11-19T00:27:58.101Z,6.93
2017-11-19T00:30:25.676Z,7.60
2017-11-19T00:32:53.248Z,8.10
2017-11-19T00:35:22.148Z,7.87
2017-11-19T00:37:49.711Z,8.10
2017-11-19T00:40:18.068Z,8.02
2017-11-19T00:42:46.458Z,7.53
2017-11-19T00:45:14.046Z,8.38
2017-11-19T00:47:41.609Z,8.82
2017-11-19T00:50:09.197Z,6.97
2017-11-19T00:52:36.744Z,7.55
2017-11-19T00:55:04.336Z,8.23
2017-11-19T00:57:31.912Z,8.75
2017-11-19T01:00:00.345Z,7.68
2017-11-19T01:02:27.880Z,8.75
2017-11-19T01:04:55.437Z,7.90
2017-11-19T01:07:23.026Z,8.90
2017-11-19T01:09:50.621Z,9.05
2017-11-19T01:12:18.216Z,8.38
2017-11-19T01:17:20.677Z,7.55
2017-11-19T01:19:48.237Z,6.90
2017-11-19T01:22:15.836Z,7.45
2017-11-19T01:24:43.443Z,6.05
2017-11-19T01:27:11.000Z,6.62
2017-11-19T01:29:38.560Z,6.72
2017-11-19T01:32:06.205Z,6.35
2017-11-19T01:34:33.804Z,6.43
2017-11-19T01:37:01.387Z,7.32
2017-11-19T01:39:29.715Z,6.40
2017-11-19T01:41:57.314Z,6.37
2017-11-19T01:44:25.643Z,6.40
2017-11-19T01:46:53.975Z,7.03
2017-11-19T01:49:22.348Z,5.40
2017-11-19T01:51:49.928Z,5.70
2017-11-19T01:54:17.527Z,6.15
2017-11-19T01:56:45.100Z,5.87
2017-11-19T01:59:12.692Z,5.65
2017-11-19T02:01:41.016Z,5.28
2017-11-19T02:04:08.571Z,5.78
2017-11-19T02:06:36.163Z,5.43
2017-11-19T02:09:03.735Z,5.82
2017-11-19T02:11:31.343Z,6.53
2017-11-19T02:13:58.903Z,4.62
2017-11-19T02:16:26.496Z,5.65
2017-11-19T02:18:54.084Z,4.70
2017-11-19T02:21:21.630Z,5.15
2017-11-19T02:23:49.220Z,5.22
2017-11-19T02:26:17.578Z,4.55
2017-11-19T02:28:45.173Z,4.55
2017-11-19T02:31:13.479Z,4.70
2017-11-19T02:33:41.033Z,4.60
2017-11-19T02:36:08.633Z,4.22
2017-11-19T02:38:36.233Z,4.75
2017-11-19T02:41:04.543Z,4.12
2017-11-19T02:43:32.133Z,4.50
2017-11-19T02:45:59.743Z,4.10
2017-11-19T02:48:27.295Z,4.87
2017-11-19T02:50:55.652Z,3.95
2017-11-19T02:53:23.204Z,3.90
2017-11-19T02:55:50.811Z,4.18
2017-11-19T02:58:18.364Z,4.30
2017-11-19T03:00:45.907Z,4.85
2017-11-19T03:03:14.281Z,3.60
2017-11-19T03:05:42.596Z,4.28
2017-11-19T03:08:10.151Z,3.60
2017-11-19T03:10:37.762Z,3.40
2017-11-19T03:13:05.320Z,4.00
2017-11-19T03:15:32.895Z,3.90
2017-11-19T03:18:01.255Z,4.20
2017-11-19T03:20:28.815Z,4.50
2017-11-19T03:22:56.410Z,4.12
2017-11-19T03:25:24.766Z,3.83
2017-11-19T03:27:52.371Z,2.90
2017-11-19T03:30:19.936Z,3.03
2017-11-19T03:32:47.508Z,3.33
2017-11-19T03:35:15.114Z,3.70
2017-11-19T03:37:42.672Z,2.80
2017-11-19T03:40:10.276Z,2.90
2017-11-19T03:42:37.823Z,3.75
2017-11-19T03:45:05.416Z,3.15
2017-11-19T03:47:33.105Z,3.08
2017-11-19T03:50:00.652Z,3.62
2017-11-19T03:52:28.204Z,3.58
2017-11-19T03:54:55.788Z,3.00
2017-11-19T03:57:23.392Z,3.42
2017-11-19T03:59:50.948Z,2.65
2017-11-19T04:02:18.499Z,3.22
2017-11-19T04:04:46.852Z,2.50
2017-11-19T04:07:14.412Z,2.80
2017-11-19T04:09:41.969Z,3.28
2017-11-19T04:12:09.564Z,2.80
2017-11-19T04:14:37.111Z,2.60
2017-11-19T04:17:05.433Z,2.78
2017-11-19T04:19:33.018Z,2.65
2017-11-19T04:22:00.570Z,3.00
2017-11-19T04:24:28.126Z,2.35
2017-11-19T04:26:55.744Z,3.08
2017-11-19T04:29:23.310Z,2.45
2017-11-19T04:31:50.868Z,2.17
2017-11-19T04:34:18.451Z,2.72
2017-11-19T04:36:46.040Z,2.55
2017-11-19T04:39:13.610Z,2.70
2017-11-19T04:41:41.170Z,2.85
2017-11-19T04:44:08.782Z,2.50
2017-11-19T04:46:36.341Z,3.20
2017-11-19T04:49:03.948Z,2.60
2017-11-19T04:51:31.500Z,2.70
2017-11-19T04:53:59.099Z,2.83
2017-11-19T04:56:27.470Z,2.85
2017-11-19T04:58:55.800Z,3.00
2017-11-19T05:01:23.393Z,3.08
2017-11-19T05:03:50.997Z,3.33
2017-11-19T05:06:18.600Z,2.60
2017-11-19T05:08:46.216Z,2.80
2017-11-19T05:11:13.857Z,3.17
2017-11-19T05:13:42.180Z,2.47
2017-11-19T05:16:09.744Z,3.25
2017-11-19T05:18:37.332Z,3.40
2017-11-19T05:21:04.944Z,2.95
2017-11-19T05:23:32.494Z,3.10
2017-11-19T05:26:00.814Z,4.35
2017-11-19T05:28:28.431Z,3.22
2017-11-19T05:30:56.751Z,3.55
2017-11-19T05:33:24.300Z,3.10
2017-11-19T05:35:51.879Z,3.60
2017-11-19T05:38:19.467Z,3.53
2017-11-19T05:40:47.026Z,4.20
2017-11-19T05:43:14.616Z,3.95
2017-11-19T05:45:42.174Z,3.42
2017-11-19T05:48:10.515Z,4.12
2017-11-19T05:50:38.068Z,4.47
2017-11-19T05:53:05.660Z,4.55
2017-11-19T05:55:34.034Z,3.87
2017-11-19T05:58:01.578Z,4.47
2017-11-19T06:00:29.123Z,4.28
2017-11-19T06:02:56.742Z,3.70
2017-11-19T06:05:24.304Z,3.62
2017-11-19T06:07:51.851Z,3.33
2017-11-19T06:10:20.204Z,3.95
2017-11-19T06:12:47.812Z,3.33
2017-11-19T06:15:15.422Z,3.15
2017-11-19T06:17:42.975Z,3.55
2017-11-19T06:20:10.582Z,3.22
2017-11-19T06:22:38.286Z,3.72
2017-11-19T06:25:05.841Z,2.78
2017-11-19T06:27:33.410Z,3.92
2017-11-19T06:30:00.999Z,3.70
2017-11-19T06:32:29.323Z,2.75
2017-11-19T06:34:56.922Z,3.45
2017-11-19T06:37:24.485Z,3.22
2017-11-19T06:39:52.119Z,3.47
2017-11-19T06:42:19.711Z,2.67
2017-11-19T06:44:47.275Z,3.28
2017-11-19T06:47:14.871Z,3.00
2017-11-19T06:49:42.428Z,3.42
2017-11-19T06:52:09.975Z,3.37
2017-11-19T06:54:38.320Z,2.80
2017-11-19T06:57:05.876Z,3.00
2017-11-19T06:59:33.467Z,3.00
2017-11-19T07:02:01.795Z,2.92
2017-11-19T07:04:29.381Z,3.00
2017-11-19T07:06:56.960Z,3.00
2017-11-19T07:09:24.573Z,3.05
2017-11-19T07:11:52.200Z,3.55
2017-11-19T07:14:20.536Z,4.30
2017-11-19T07:16:48.088Z,3.70
2017-11-19T07:19:15.682Z,3.85
2017-11-19T07:21:43.280Z,4.93
2017-11-19T07:24:10.836Z,4.75
2017-11-19T07:26:38.382Z,5.12
2017-11-19T07:29:06.732Z,5.37
2017-11-19T07:31:34.316Z,5.20
2017-11-19T07:34:02.642Z,5.55
2017-11-19T07:36:30.228Z,6.00
2017-11-19T07:38:57.781Z,5.00
2017-11-19T07:41:25.662Z,6.65
2017-11-19T07:43:53.241Z,6.18
2017-11-19T07:46:21.582Z,5.87
2017-11-19T07:48:49.172Z,7.28
2017-11-19T07:51:17.549Z,8.20
2017-11-19T07:53:45.895Z,7.07
2017-11-19T07:56:13.490Z,6.68
2017-11-19T07:58:41.861Z,6.68
2017-11-19T08:01:09.411Z,6.80
2017-11-19T08:03:37.011Z,6.60
2017-11-19T08:06:04.585Z,7.12
2017-11-19T08:08:32.176Z,8.80
2017-11-19T08:10:59.772Z,7.60
2017-11-19T08:13:27.457Z,8.07
2017-11-19T08:15:55.016Z,7.55
2017-11-19T08:18:23.372Z,7.62
2017-11-19T08:20:50.923Z,8.65
2017-11-19T08:23:18.525Z,7.80
2017-11-19T08:25:46.084Z,7.78
2017-11-19T08:28:13.717Z,7.65
2017-11-19T08:30:42.046Z,8.85
2017-11-19T08:33:09.619Z,8.85
2017-11-19T08:35:37.212Z,8.05
2017-11-19T08:38:05.583Z,7.75
2017-11-19T08:40:33.149Z,7.65
2017-11-19T08:43:00.756Z,9.00
2017-11-19T08:45:28.310Z,7.75
2017-11-19T08:47:56.721Z,8.57
2017-11-19T08:50:24.316Z,8.60
2017-11-19T08:52:51.915Z,9.48
2017-11-19T08:55:19.476Z,9.07
2017-11-19T08:57:47.080Z,8.75
2017-11-19T09:00:14.669Z,8.30
2017-11-19T09:02:43.028Z,9.02
2017-11-19T09:05:10.591Z,8.23
2017-11-19T09:07:38.192Z,6.87
2017-11-19T09:10:05.741Z,7.00
2017-11-19T09:12:34.085Z,7.20
2017-11-19T09:15:01.680Z,7.18
2017-11-19T09:17:30.027Z,6.30
2017-11-19T09:19:57.636Z,8.60
2017-11-19T09:22:25.216Z,7.90
2017-11-19T09:24:52.836Z,5.72
2017-11-19T09:27:21.151Z,4.78
2017-11-19T09:29:48.712Z,5.90
2017-11-19T09:32:16.310Z,5.00
2017-11-19T09:34:43.875Z,4.60
2017-11-19T09:37:11.472Z,5.00
2017-11-19T09:39:39.038Z,3.83
2017-11-19T09:42:06.638Z,4.37
2017-11-19T09:44:34.205Z,3.80
2017-11-19T09:47:01.773Z,3.80
2017-11-19T09:49:29.378Z,3.75
2017-11-19T09:51:56.932Z,3.87
2017-11-19T09:54:24.506Z,3.15
2017-11-19T09:56:52.102Z,3.47
2017-11-19T09:59:19.715Z,3.22
2017-11-19T10:01:47.307Z,3.65
2017-11-19T10:04:14.868Z,3.00
2017-11-19T10:06:42.469Z,3.10
2017-11-19T10:09:10.027Z,2.75
2017-11-19T10:11:37.653Z,3.30
2017-11-19T10:14:05.199Z,3.00
2017-11-19T10:16:32.771Z,3.25
2017-11-19T10:19:00.333Z,2.33
2017-11-19T10:21:27.921Z,3.05
2017-11-19T10:23:56.321Z,2.67
2017-11-19T10:26:24.680Z,2.72
2017-11-19T10:28:52.321Z,3.58
2017-11-19T10:31:19.914Z,2.10
2017-11-19T10:33:48.274Z,2.70
2017-11-19T10:36:15.836Z,2.70
2017-11-19T10:38:43.445Z,2.92
2017-11-19T10:41:11.003Z,3.00
2017-11-19T10:43:38.559Z,2.78
2017-11-19T10:46:06.906Z,2.53
2017-11-19T10:48:34.498Z,2.85
2017-11-19T10:51:02.202Z,2.45
2017-11-19T10:53:29.761Z,3.03
2017-11-19T10:55:57.311Z,2.35
2017-11-19T10:58:24.930Z,2.80
2017-11-19T11:00:53.267Z,2.62
2017-11-19T11:03:20.832Z,2.12
2017-11-19T11:05:48.449Z,2.55
2017-11-19T11:08:16.052Z,2.30
2017-11-19T11:10:43.647Z,2.58
2017-11-19T11:13:12.021Z,2.37
2017-11-19T11:15:40.390Z,2.05
2017-11-19T11:18:08.018Z,2.92
2017-11-19T11:20:35.586Z,2.33
2017-11-19T11:23:03.161Z,2.60
2017-11-19T11:25:30.761Z,2.10
2017-11-19T11:27:59.087Z,2.55
2017-11-19T11:30:26.647Z,2.50
2017-11-19T11:32:54.238Z,3.37
2017-11-19T11:35:21.831Z,2.75
2017-11-19T11:37:50.146Z,4.53
2017-11-19T11:40:17.727Z,2.20
2017-11-19T11:42:45.277Z,2.45
2017-11-19T11:45:12.875Z,2.50
2017-11-19T11:47:41.186Z,2.45
2017-11-19T11:50:08.753Z,2.00
2017-11-19T11:52:36.365Z,2.95
2017-11-19T11:55:03.922Z,3.03
2017-11-19T11:57:31.523Z,2.50
2017-11-19T11:59:59.098Z,2.60
2017-11-19T12:02:26.661Z,2.80
2017-11-19T12:04:54.256Z,2.80
2017-11-19T12:07:21.954Z,2.85
2017-11-19T12:09:50.264Z,2.72
2017-11-19T12:12:17.813Z,3.20
2017-11-19T12:14:45.402Z,2.78
2017-11-19T12:17:12.994Z,2.87
2017-11-19T12:19:40.542Z,3.00
2017-11-19T12:22:08.886Z,2.50
2017-11-19T12:24:37.254Z,2.70
2017-11-19T12:27:04.884Z,2.95
2017-11-19T12:29:33.232Z,2.40
2017-11-19T12:32:00.836Z,2.62
2017-11-19T12:34:29.220Z,2.70
2017-11-19T12:36:56.815Z,2.60
2017-11-19T12:39:24.369Z,2.45
2017-11-19T12:41:51.968Z,2.12
2017-11-19T12:44:19.522Z,3.70
2017-11-19T12:46:47.154Z,2.55
2017-11-19T12:49:15.512Z,2.50
2017-11-19T12:51:43.063Z,3.03
2017-11-19T12:54:10.653Z,2.15
2017-11-19T12:56:38.212Z,2.40
2017-11-19T12:59:05.773Z,2.62
2017-11-19T13:01:33.368Z,2.83
2017-11-19T13:04:00.976Z,2.35
2017-11-19T13:06:28.580Z,2.62
2017-11-19T13:08:57.684Z,2.92
2017-11-19T13:11:25.243Z,2.80
2017-11-19T13:13:52.864Z,2.85
2017-11-19T13:16:20.424Z,2.80
2017-11-19T13:18:48.009Z,2.55
2017-11-19T13:21:15.583Z,2.33
2017-11-19T13:23:43.172Z,2.15
2017-11-19T13:26:11.507Z,2.97
2017-11-19T13:28:39.118Z,2.95
2017-11-19T13:31:07.452Z,3.05
2017-11-19T13:33:34.990Z,2.50
2017-11-19T13:36:02.652Z,2.37
2017-11-19T13:38:30.271Z,2.70
2017-11-19T13:40:57.897Z,3.17
2017-11-19T13:43:25.446Z,2.47
2017-11-19T13:45:53.045Z,2.30
2017-11-19T13:48:21.375Z,2.87
2017-11-19T13:50:48.960Z,2.60
2017-11-19T13:53:16.517Z,2.47
2017-11-19T13:55:44.149Z,2.72
2017-11-19T13:58:11.731Z,2.80
2017-11-19T14:00:39.290Z,2.55
2017-11-19T14:03:06.881Z,2.42
2017-11-19T14:05:35.220Z,2.60
2017-11-19T14:08:02.854Z,2.55
2017-11-19T14:10:30.412Z,2.80
2017-11-19T14:12:58.752Z,1.98
2017-11-19T14:15:26.352Z,2.53
2017-11-19T14:17:53.961Z,2.50
2017-11-19T14:20:21.556Z,2.53
2017-11-19T14:22:49.917Z,2.92
2017-11-19T14:25:18.259Z,2.85
2017-11-19T14:27:45.855Z,2.72
2017-11-19T14:30:13.450Z,2.95
2017-11-19T14:32:41.799Z,2.78
2017-11-19T14:35:09.379Z,2.95
2017-11-19T14:37:37.766Z,3.28
2017-11-19T14:40:06.096Z,2.40
2017-11-19T14:42:33.648Z,2.90
2017-11-19T14:45:01.251Z,3.28
2017-11-19T14:47:29.621Z,4.37
2017-11-19T14:49:57.182Z,3.85
2017-11-19T14:52:24.813Z,4.87
2017-11-19T14:54:52.412Z,2.87
2017-11-19T14:57:20.801Z,3.30
2017-11-19T14:59:49.171Z,2.70
2017-11-19T15:02:17.506Z,2.70
2017-11-19T15:04:45.203Z,2.28
2017-11-19T15:07:12.803Z,2.65
2017-11-19T15:09:40.387Z,2.00
2017-11-19T15:12:07.982Z,2.30
2017-11-19T15:14:35.556Z,2.30
2017-11-19T15:17:03.913Z,2.25
2017-11-19T15:19:31.523Z,2.10
2017-11-19T15:21:59.090Z,3.58
2017-11-19T15:24:26.689Z,2.80
2017-11-19T15:26:54.286Z,2.62
2017-11-19T15:29:22.655Z,3.10
2017-11-19T15:31:50.248Z,2.80
2017-11-19T15:34:17.859Z,3.00
2017-11-19T15:36:45.497Z,2.65
2017-11-19T15:39:13.090Z,2.00
2017-11-19T15:41:40.668Z,4.15
2017-11-19T15:44:08.994Z,2.62
2017-11-19T15:46:36.777Z,2.53
2017-11-19T15:49:04.474Z,3.50
2017-11-19T15:51:32.099Z,3.35
2017-11-19T15:53:59.815Z,2.30
2017-11-19T15:56:27.542Z,2.40
2017-11-19T15:58:55.092Z,2.30
2017-11-19T16:01:22.698Z,2.12
2017-11-19T16:03:50.320Z,2.65
2017-11-19T16:06:17.895Z,2.50
2017-11-19T16:08:45.492Z,3.20
2017-11-19T16:11:13.074Z,2.92
2017-11-19T16:13:40.669Z,3.00
2017-11-19T16:16:08.402Z,3.10
2017-11-19T16:18:35.945Z,2.97
2017-11-19T16:21:03.507Z,3.55
2017-11-19T16:23:31.107Z,3.95
2017-11-19T16:25:58.691Z,2.47
2017-11-19T16:28:27.061Z,3.30
2017-11-19T16:30:54.620Z,4.72
2017-11-19T16:33:22.245Z,3.17
2017-11-19T16:35:49.853Z,3.67
2017-11-19T16:38:18.180Z,4.00
2017-11-19T16:40:45.745Z,3.15
2017-11-19T16:43:13.348Z,3.60
2017-11-19T16:45:40.913Z,2.92
2017-11-19T16:48:09.280Z,4.90
2017-11-19T16:50:37.629Z,3.35
2017-11-19T16:53:05.247Z,3.25
2017-11-19T16:55:33.582Z,2.83
2017-11-19T16:58:01.171Z,3.80
2017-11-19T17:00:29.553Z,3.15
2017-11-19T17:02:57.191Z,4.15
2017-11-19T17:05:24.754Z,5.47
2017-11-19T17:07:52.369Z,2.62
2017-11-19T17:10:22.200Z,3.90
2017-11-19T17:12:51.804Z,3.87
2017-11-19T17:15:21.752Z,3.80
2017-11-19T17:17:51.621Z,3.42
2017-11-19T17:20:21.260Z,3.08
2017-11-19T17:22:50.959Z,4.47
2017-11-19T17:25:20.708Z,3.35
2017-11-19T17:27:49.796Z,3.67
2017-11-19T17:30:17.400Z,3.08
2017-11-19T17:32:44.965Z,3.62
2017-11-19T17:35:15.027Z,3.00
2017-11-19T17:37:42.619Z,3.30
2017-11-19T17:40:11.003Z,3.25
2017-11-19T17:42:39.350Z,2.67
2017-11-19T17:45:06.960Z,3.78
2017-11-19T17:47:34.668Z,4.12
2017-11-19T17:50:02.328Z,3.45
2017-11-19T17:52:29.888Z,3.60
2017-11-19T17:54:57.484Z,3.78
2017-11-19T17:57:25.844Z,4.75
2017-11-19T17:59:53.454Z,4.35
2017-11-19T18:02:21.021Z,3.53
2017-11-19T18:04:48.584Z,4.05
2017-11-19T18:07:16.199Z,3.42
2017-11-19T18:09:44.552Z,3.40
2017-11-19T18:12:12.168Z,2.72
2017-11-19T18:14:39.880Z,3.10
2017-11-19T18:17:07.448Z,3.53
2017-11-19T18:19:35.144Z,3.25
2017-11-19T18:22:03.520Z,3.47
2017-11-19T18:24:31.887Z,3.15
2017-11-19T18:27:00.248Z,2.80
2017-11-19T18:29:27.813Z,2.75
2017-11-19T18:31:55.438Z,3.95
2017-11-19T18:34:23.016Z,4.05
2017-11-19T18:36:50.570Z,3.70
2017-11-19T18:39:18.170Z,3.97
2017-11-19T18:41:46.539Z,5.55
2017-11-19T18:44:14.107Z,3.60
2017-11-19T18:46:41.719Z,3.92
2017-11-19T18:49:09.318Z,4.40
2017-11-19T18:51:36.882Z,3.80
2017-11-19T18:54:05.331Z,3.75
2017-11-19T18:56:32.904Z,3.25
2017-11-19T18:59:00.504Z,3.92
2017-11-19T19:01:28.865Z,4.20
2017-11-19T19:03:56.439Z,5.05
2017-11-19T19:06:24.823Z,4.47
2017-11-19T19:08:53.146Z,3.72
2017-11-19T19:11:20.740Z,3.67
2017-11-19T19:13:48.335Z,3.70
2017-11-19T19:16:15.896Z,4.25
2017-11-19T19:18:44.277Z,3.97
2017-11-19T19:21:11.842Z,4.30
2017-11-19T19:23:39.406Z,4.87
2017-11-19T19:26:07.016Z,4.10
2017-11-19T19:28:34.619Z,4.68
2017-11-19T19:31:02.224Z,4.80
2017-11-19T19:33:29.820Z,3.65
2017-11-19T19:35:58.228Z,4.28
2017-11-19T19:38:25.841Z,4.50
2017-11-19T19:40:53.440Z,3.75
2017-11-19T19:43:21.776Z,3.70
2017-11-19T19:45:49.380Z,4.12
2017-11-19T19:48:17.780Z,3.78
2017-11-19T19:50:45.339Z,3.58
2017-11-19T19:53:12.909Z,3.03
2017-11-19T19:55:40.525Z,3.95
2017-11-19T19:58:08.868Z,3.45
2017-11-19T20:00:36.470Z,4.03
2017-11-19T20:03:04.832Z,3.67
2017-11-19T20:05:32.392Z,3.30
2017-11-19T20:07:59.988Z,3.50
2017-11-19T20:10:27.549Z,3.97
2017-11-19T20:12:55.151Z,4.60
2017-11-19T20:15:22.746Z,3.58
2017-11-19T20:17:51.127Z,4.90
2017-11-19T20:20:19.576Z,4.28
2017-11-19T20:22:47.207Z,3.45
2017-11-19T20:25:14.803Z,3.20
2017-11-19T20:27:42.360Z,3.87
2017-11-19T20:30:10.007Z,3.37
2017-11-19T20:32:37.580Z,4.03
2017-11-19T20:35:05.179Z,3.50
2017-11-19T20:37:33.538Z,4.10
2017-11-19T20:40:01.133Z,3.40
2017-11-19T20:42:28.729Z,3.20
2017-11-19T20:44:56.363Z,3.60
2017-11-19T20:47:23.973Z,3.90
2017-11-19T20:49:51.528Z,3.47
2017-11-19T20:52:19.127Z,4.07
2017-11-19T20:54:47.449Z,3.40
2017-11-19T20:57:15.043Z,3.80
2017-11-19T20:59:42.606Z,4.45
2017-11-19T21:02:13.278Z,3.22
2017-11-19T21:04:40.838Z,4.25
2017-11-19T21:07:08.457Z,3.75
2017-11-19T21:09:36.016Z,4.07
2017-11-19T21:12:03.611Z,4.03
2017-11-19T21:14:31.943Z,3.78
2017-11-19T21:16:59.546Z,3.85
2017-11-19T21:19:27.932Z,4.05
2017-11-19T21:21:55.607Z,3.60
2017-11-19T21:24:23.229Z,3.67
2017-11-19T21:26:50.787Z,3.72
2017-11-19T21:29:18.351Z,3.78
2017-11-19T21:31:45.948Z,4.37
2017-11-19T21:34:13.503Z,4.20
2017-11-19T21:36:41.099Z,3.78
2017-11-19T21:39:08.665Z,4.03
2017-11-19T21:41:36.286Z,4.05
2017-11-19T21:44:03.897Z,4.20
2017-11-19T21:46:31.493Z,3.78
2017-11-19T21:48:59.824Z,3.67
2017-11-19T21:51:27.419Z,3.95
2017-11-19T21:53:55.750Z,3.70
2017-11-19T21:56:23.360Z,3.67
2017-11-19T21:58:50.931Z,3.80
2017-11-19T22:01:19.261Z,3.45
2017-11-19T22:03:46.891Z,4.57
2017-11-19T22:06:14.498Z,3.85
2017-11-19T22:08:42.095Z,3.75
2017-11-19T22:11:10.420Z,3.65
2017-11-19T22:13:38.011Z,3.87
2017-11-19T22:16:05.575Z,4.50
2017-11-19T22:18:33.180Z,3.92
2017-11-19T22:21:00.746Z,4.00
2017-11-19T22:23:28.357Z,3.80
2017-11-19T22:25:55.916Z,3.92
2017-11-19T22:28:23.520Z,3.90
2017-11-19T22:30:51.093Z,4.00
2017-11-19T22:33:18.655Z,4.45
2017-11-19T22:35:46.255Z,4.55
2017-11-19T22:38:13.814Z,3.92
2017-11-19T22:40:41.415Z,3.62
2017-11-19T22:43:09.105Z,4.10
2017-11-19T22:45:36.742Z,3.95
2017-11-19T22:48:04.303Z,4.03
2017-11-19T22:50:31.868Z,4.18
2017-11-19T22:52:59.473Z,4.93
2017-11-19T22:55:27.050Z,4.30
2017-11-19T22:57:54.666Z,6.22
2017-11-19T23:00:22.240Z,3.22
2017-11-19T23:02:49.796Z,3.67
2017-11-19T23:05:17.386Z,3.97
2017-11-19T23:07:44.940Z,4.80
2017-11-19T23:10:12.535Z,4.07
2017-11-19T23:12:40.850Z,4.97
2017-11-19T23:15:08.444Z,4.53
2017-11-19T23:17:35.999Z,4.47
2017-11-19T23:20:03.560Z,4.00
2017-11-19T23:22:31.194Z,3.40
2017-11-19T23:24:58.765Z,3.65
2017-11-19T23:27:26.374Z,4.35
2017-11-19T23:29:54.749Z,3.83
2017-11-19T23:32:23.072Z,4.03
2017-11-19T23:34:50.623Z,4.00
2017-11-19T23:37:18.224Z,4.03
2017-11-19T23:39:45.832Z,4.22
2017-11-19T23:42:13.388Z,4.70
2017-11-19T23:44:40.979Z,4.45
2017-11-19T23:47:08.540Z,4.22
2017-11-19T23:49:36.139Z,4.22
2017-11-19T23:52:03.705Z,4.30
2017-11-19T23:54:32.024Z,4.50
2017-11-19T23:56:59.624Z,3.75
2017-11-19T23:59:27.197Z,4.70
